createdAt,value
2022-12-19T00:01:40.929Z,10.55
2022-12-19T00:04:45.647Z,11.73
2022-12-19T00:07:49.871Z,10.18
2022-12-19T00:10:57.336Z,10.60
2022-12-19T00:14:01.145Z,12.05
2022-12-19T00:17:04.158Z,11.85
2022-12-19T00:20:10.327Z,11.77
2022-12-19T00:23:14.768Z,12.90
2022-12-19T00:26:19.880Z,13.32
2022-12-19T00:29:22.852Z,13.43
2022-12-19T00:32:26.365Z,14.23
2022-12-19T00:35:30.682Z,14.98
2022-12-19T00:38:33.907Z,13.48
2022-12-19T00:41:41.637Z,13.73
2022-12-19T00:44:45.401Z,13.57
2022-12-19T00:47:48.503Z,14.15
2022-12-19T00:51:01.053Z,15.73
2022-12-19T00:54:07.276Z,13.38
2022-12-19T00:57:10.860Z,13.57
2022-12-19T01:00:16.704Z,13.30
2022-12-19T01:03:19.904Z,12.40
2022-12-19T01:06:24.276Z,11.97
2022-12-19T01:09:27.764Z,13.65
2022-12-19T01:12:49.112Z,13.33
2022-12-19T01:15:52.252Z,13.70
2022-12-19T01:18:55.248Z,13.60
2022-12-19T01:21:59.585Z,12.63
2022-12-19T01:25:03.213Z,14.07
2022-12-19T01:28:08.562Z,12.10
2022-12-19T01:31:14.165Z,11.75
2022-12-19T01:34:18.683Z,12.75
2022-12-19T01:37:23.374Z,12.27
2022-12-19T01:40:26.535Z,12.98
2022-12-19T01:43:34.388Z,13.67
2022-12-19T01:46:42.009Z,12.18
2022-12-19T01:49:45.198Z,13.07
2022-12-19T01:52:49.779Z,14.20
2022-12-19T01:55:53.708Z,13.32
2022-12-19T01:59:05.844Z,13.18
2022-12-19T02:02:15.860Z,13.45
2022-12-19T02:05:19.286Z,14.40
2022-12-19T02:08:27.104Z,13.75
2022-12-19T02:11:30.146Z,15.07
2022-12-19T02:14:33.676Z,14.97
2022-12-19T02:17:52.730Z,14.38
2022-12-19T02:21:21.885Z,15.18
2022-12-19T02:25:02.707Z,14.32
2022-12-19T02:28:47.551Z,15.50
2022-12-19T02:31:58.465Z,16.73
2022-12-19T02:35:12.410Z,16.02
2022-12-19T02:38:25.601Z,15.43
2022-12-19T02:41:43.301Z,16.30
2022-12-19T02:44:52.364Z,16.52
2022-12-19T02:48:02.325Z,17.27
2022-12-19T02:51:07.669Z,16.95
2022-12-19T02:54:11.824Z,17.00
2022-12-19T02:57:24.936Z,16.15
2022-12-19T03:00:33.280Z,16.40
2022-12-19T03:03:48.789Z,15.88
2022-12-19T03:07:02.052Z,14.15
2022-12-19T03:10:19.493Z,14.67
2022-12-19T03:13:29.703Z,14.75
2022-12-19T03:16:36.474Z,13.73
2022-12-19T03:19:42.690Z,14.02
2022-12-19T03:22:46.160Z,13.38
2022-12-19T03:25:57.027Z,12.98
2022-12-19T03:29:15.825Z,12.88
2022-12-19T03:32:21.350Z,13.35
2022-12-19T03:35:30.569Z,13.25
2022-12-19T03:38:36.802Z,13.65
2022-12-19T03:42:09.394Z,11.68
2022-12-19T03:45:16.674Z,12.15
2022-12-19T03:48:28.636Z,12.70
2022-12-19T03:51:43.788Z,12.70
2022-12-19T03:54:56.887Z,12.57
2022-12-19T03:58:08.192Z,12.52
2022-12-19T04:01:12.107Z,12.32
2022-12-19T04:04:16.538Z,12.38
2022-12-19T04:07:22.420Z,12.27
2022-12-19T04:10:28.853Z,12.35
2022-12-19T04:13:42.558Z,12.63
2022-12-19T04:16:52.783Z,13.55
2022-12-19T04:20:03.114Z,13.20
2022-12-19T04:23:15.997Z,12.32
2022-12-19T04:26:22.102Z,12.18
2022-12-19T04:29:27.634Z,12.75
2022-12-19T04:32:35.196Z,12.60
2022-12-19T04:35:39.016Z,12.82
2022-12-19T04:38:43.441Z,12.57
2022-12-19T04:41:46.546Z,13.23
2022-12-19T04:44:49.503Z,11.50
2022-12-19T04:47:52.450Z,12.30
2022-12-19T04:50:56.351Z,12.70
2022-12-19T04:54:00.646Z,11.95
2022-12-19T04:57:03.767Z,12.40
2022-12-19T05:00:08.618Z,11.30
2022-12-19T05:03:11.852Z,12.50
2022-12-19T05:06:17.053Z,12.50
2022-12-19T05:09:21.644Z,12.20
2022-12-19T05:12:24.832Z,12.20
2022-12-19T05:15:27.800Z,12.90
2022-12-19T05:18:32.527Z,12.15
2022-12-19T05:21:35.562Z,12.80
2022-12-19T05:24:40.049Z,13.18
2022-12-19T05:27:42.949Z,11.75
2022-12-19T05:30:52.083Z,12.77
2022-12-19T05:33:55.589Z,12.63
2022-12-19T05:36:58.930Z,12.60
2022-12-19T05:40:05.257Z,12.18
2022-12-19T05:43:08.242Z,12.38
2022-12-19T05:46:11.360Z,12.57
2022-12-19T05:49:18.308Z,12.77
2022-12-19T05:52:21.818Z,12.40
2022-12-19T05:55:26.183Z,11.63
2022-12-19T05:58:29.223Z,12.98
2022-12-19T06:01:32.348Z,12.30
2022-12-19T06:04:39.031Z,13.10
2022-12-19T06:07:42.074Z,13.18
2022-12-19T06:10:46.431Z,13.18
2022-12-19T06:13:49.877Z,13.32
2022-12-19T06:16:52.901Z,12.63
2022-12-19T06:19:56.042Z,12.90
2022-12-19T06:23:00.277Z,13.98
2022-12-19T06:26:07.437Z,13.20
2022-12-19T06:29:10.525Z,13.48
2022-12-19T06:32:13.698Z,12.87
2022-12-19T06:35:16.955Z,12.83
2022-12-19T06:38:21.099Z,12.07
2022-12-19T06:41:43.673Z,12.98
2022-12-19T06:44:46.720Z,14.07
2022-12-19T06:47:51.012Z,14.27
2022-12-19T06:50:54.429Z,12.40
2022-12-19T06:53:58.705Z,13.45
2022-12-19T06:57:03.498Z,12.52
2022-12-19T07:00:07.975Z,13.63
2022-12-19T07:03:16.844Z,13.50
2022-12-19T07:06:19.912Z,13.10
2022-12-19T07:09:23.135Z,13.52
2022-12-19T07:12:27.737Z,13.10
2022-12-19T07:15:34.134Z,13.10
2022-12-19T07:18:40.581Z,13.40
2022-12-19T07:21:43.691Z,13.55
2022-12-19T07:24:47.031Z,13.63
2022-12-19T07:27:52.751Z,13.97
2022-12-19T07:30:55.674Z,13.43
2022-12-19T07:33:58.905Z,12.88
2022-12-19T07:37:02.601Z,12.98
2022-12-19T07:40:07.244Z,12.57
2022-12-19T07:43:12.152Z,13.75
2022-12-19T07:46:15.483Z,13.13
2022-12-19T07:49:22.661Z,14.15
2022-12-19T07:52:26.437Z,12.98
2022-12-19T07:55:29.880Z,13.00
2022-12-19T07:58:34.306Z,13.52
2022-12-19T08:01:37.417Z,13.48
2022-12-19T08:04:40.589Z,12.70
2022-12-19T08:07:43.710Z,12.70
2022-12-19T08:10:47.076Z,13.50
2022-12-19T08:13:51.699Z,12.83
2022-12-19T08:20:18.156Z,13.10
2022-12-19T08:23:21.393Z,13.00
2022-12-19T08:26:25.881Z,12.40
2022-12-19T08:29:30.703Z,13.38
2022-12-19T08:32:33.743Z,12.93
2022-12-19T08:35:37.674Z,11.98
2022-12-19T08:38:41.407Z,14.68
2022-12-19T08:41:44.664Z,12.93
2022-12-19T08:44:49.057Z,12.87
2022-12-19T08:47:52.196Z,13.65
2022-12-19T08:50:58.140Z,13.90
2022-12-19T08:54:01.231Z,13.75
2022-12-19T08:57:05.322Z,13.68
2022-12-19T09:00:12.247Z,13.53
2022-12-19T09:03:16.250Z,12.32
2022-12-19T09:06:21.831Z,12.82
2022-12-19T09:09:24.855Z,12.30
2022-12-19T09:12:27.851Z,13.43
2022-12-19T09:15:32.387Z,12.40
2022-12-19T09:18:36.116Z,12.75
2022-12-19T09:21:39.104Z,12.90
2022-12-19T09:24:42.030Z,13.10
2022-12-19T09:28:25.120Z,12.50
2022-12-19T09:31:14.873Z,13.55
2022-12-19T09:34:18.007Z,13.23
2022-12-19T09:37:25.431Z,12.95
2022-12-19T09:40:34.772Z,13.32
2022-12-19T09:43:59.455Z,13.65
2022-12-19T09:47:15.171Z,12.32
2022-12-19T09:50:33.284Z,12.93
2022-12-19T09:53:54.729Z,11.82
2022-12-19T09:57:05.081Z,12.68
2022-12-19T10:00:13.624Z,13.02
2022-12-19T10:03:26.941Z,12.52
2022-12-19T10:07:08.807Z,12.98
2022-12-19T10:12:33.436Z,12.88
2022-12-19T10:17:08.948Z,11.90
2022-12-19T10:20:24.020Z,12.95
2022-12-19T10:24:00.491Z,13.60
2022-12-19T10:27:16.935Z,12.57
2022-12-19T10:30:23.476Z,13.50
2022-12-19T10:33:36.272Z,13.38
2022-12-19T10:37:19.001Z,14.05
2022-12-19T10:40:27.524Z,14.35
2022-12-19T10:43:46.067Z,13.45
2022-12-19T10:46:51.004Z,13.57
2022-12-19T10:49:54.009Z,14.02
2022-12-19T10:53:11.082Z,13.23
2022-12-19T10:56:23.593Z,13.73
2022-12-19T11:02:42.171Z,13.82
2022-12-19T11:05:57.628Z,13.18
2022-12-19T11:09:20.705Z,13.23
2022-12-19T11:16:39.840Z,13.27
2022-12-19T11:22:15.082Z,13.80
2022-12-19T11:29:27.629Z,14.77
2022-12-19T11:29:38.399Z,14.18
2022-12-19T11:30:46.434Z,14.60
2022-12-19T11:33:47.330Z,13.43
2022-12-19T11:37:00.680Z,13.52
2022-12-19T11:40:11.620Z,12.80
2022-12-19T11:46:57.902Z,13.23
2022-12-19T11:50:12.276Z,14.20
2022-12-19T11:53:24.544Z,13.77
2022-12-19T11:56:28.402Z,15.27
2022-12-19T11:59:37.718Z,14.02
2022-12-19T12:03:21.079Z,13.50
2022-12-19T12:06:33.094Z,13.90
2022-12-19T12:14:09.581Z,13.75
2022-12-19T12:24:42.544Z,12.20
2022-12-19T12:31:05.046Z,13.98
2022-12-19T12:31:08.553Z,14.18
2022-12-19T12:31:26.379Z,13.50
2022-12-19T12:31:58.100Z,13.88
2022-12-19T12:35:36.474Z,13.60
2022-12-19T12:39:15.993Z,14.57
2022-12-19T12:42:44.540Z,14.60
2022-12-19T12:45:47.614Z,13.77
2022-12-19T12:49:01.327Z,14.83
2022-12-19T12:52:09.042Z,13.70
2022-12-19T12:55:25.025Z,14.07
2022-12-19T12:59:05.000Z,14.52
2022-12-19T13:02:19.444Z,14.57
2022-12-19T13:05:40.573Z,14.57
2022-12-19T13:08:49.391Z,13.75
2022-12-19T13:12:20.908Z,13.55
2022-12-19T13:15:38.962Z,12.85
2022-12-19T13:18:42.083Z,13.95
2022-12-19T13:22:23.365Z,13.00
2022-12-19T13:25:52.747Z,12.52
2022-12-19T13:28:55.763Z,12.60
2022-12-19T13:32:17.377Z,13.38
2022-12-19T13:39:08.300Z,14.35
2022-12-19T13:39:57.478Z,13.25
2022-12-19T13:42:45.099Z,13.38
2022-12-19T13:45:55.864Z,13.63
2022-12-19T13:49:05.021Z,14.10
2022-12-19T13:52:12.939Z,13.35
2022-12-19T13:55:18.344Z,14.18
2022-12-19T13:58:28.902Z,14.50
2022-12-19T14:01:38.188Z,13.60
2022-12-19T14:04:42.285Z,14.05
2022-12-19T14:11:39.874Z,14.50
2022-12-19T14:14:38.199Z,13.52
2022-12-19T14:17:41.743Z,13.57
2022-12-19T14:22:02.139Z,13.05
2022-12-19T14:24:15.033Z,13.75
2022-12-19T14:28:26.254Z,12.38
2022-12-19T14:31:00.840Z,12.55
2022-12-19T14:34:35.494Z,11.95
2022-12-19T14:38:44.929Z,12.38
2022-12-19T14:41:09.236Z,12.02
2022-12-19T14:52:08.593Z,9.97
2022-12-19T14:54:08.510Z,11.77
2022-12-19T14:54:14.804Z,10.23
2022-12-19T14:58:54.892Z,9.80
2022-12-19T15:01:36.821Z,11.20
2022-12-19T15:04:50.766Z,10.13
2022-12-19T15:08:00.869Z,9.18
2022-12-19T15:11:37.298Z,9.40
2022-12-19T15:14:59.085Z,8.60
2022-12-19T15:18:19.287Z,9.50
2022-12-19T15:21:22.524Z,9.45
2022-12-19T15:24:25.546Z,8.68
2022-12-19T15:27:28.577Z,8.35
2022-12-19T15:30:36.790Z,8.23
2022-12-19T15:34:06.714Z,8.20
2022-12-19T15:37:04.292Z,8.32
2022-12-19T15:40:14.146Z,12.15
2022-12-19T15:44:01.422Z,9.45
2022-12-19T15:46:48.644Z,9.00
2022-12-19T15:49:53.739Z,8.52
2022-12-19T15:53:00.365Z,8.20
2022-12-19T15:56:03.847Z,9.57
2022-12-19T15:59:18.727Z,9.02
2022-12-19T16:02:27.910Z,9.27
2022-12-19T16:05:41.856Z,9.50
2022-12-19T16:08:45.250Z,9.82
2022-12-19T16:11:49.697Z,9.60
2022-12-19T16:14:58.489Z,9.75
2022-12-19T16:18:04.149Z,10.00
2022-12-19T16:21:17.036Z,11.32
2022-12-19T16:24:21.152Z,11.10
2022-12-19T16:30:32.559Z,9.95
2022-12-19T16:33:35.675Z,10.95
2022-12-19T16:36:40.027Z,11.15
2022-12-19T16:39:44.827Z,12.10
2022-12-19T16:42:49.803Z,10.70
2022-12-19T16:45:58.131Z,10.98
2022-12-19T16:49:07.282Z,10.50
2022-12-19T16:52:12.248Z,12.30
2022-12-19T16:55:16.174Z,11.90
2022-12-19T16:58:23.182Z,11.63
2022-12-19T17:01:26.449Z,12.13
2022-12-19T17:04:30.558Z,12.90
2022-12-19T17:07:36.774Z,12.95
2022-12-19T17:10:48.065Z,14.18
2022-12-19T17:13:56.044Z,12.23
2022-12-19T17:17:00.442Z,12.25
2022-12-19T17:20:03.657Z,12.15
2022-12-19T17:23:15.807Z,12.00
2022-12-19T17:26:18.953Z,11.95
2022-12-19T17:29:22.089Z,12.17
2022-12-19T17:32:25.434Z,11.18
2022-12-19T17:35:35.146Z,11.20
2022-12-19T17:38:39.609Z,10.65
2022-12-19T17:41:42.803Z,10.88
2022-12-19T17:44:45.900Z,10.87
2022-12-19T17:47:52.248Z,10.15
2022-12-19T17:51:00.014Z,10.60
2022-12-19T17:54:04.753Z,10.45
2022-12-19T17:57:16.877Z,11.05
2022-12-19T18:00:29.939Z,9.68
2022-12-19T18:03:40.195Z,10.32
2022-12-19T18:06:43.424Z,10.90
2022-12-19T18:09:47.911Z,10.35
2022-12-19T18:12:51.696Z,9.82
2022-12-19T18:16:00.653Z,10.05
2022-12-19T18:19:05.301Z,10.77
2022-12-19T18:22:13.734Z,10.57
2022-12-19T18:25:22.993Z,9.23
2022-12-19T18:28:26.369Z,10.00
2022-12-19T18:31:29.437Z,10.55
2022-12-19T18:34:36.514Z,9.50
2022-12-19T18:37:39.795Z,10.45
2022-12-19T18:40:45.302Z,9.63
2022-12-19T18:43:49.262Z,11.70
2022-12-19T18:46:53.758Z,9.38
2022-12-19T18:49:57.302Z,9.13
2022-12-19T18:53:01.036Z,9.10
2022-12-19T18:56:06.996Z,7.93
2022-12-19T18:59:11.076Z,8.27
2022-12-19T19:05:31.150Z,7.30
2022-12-19T19:08:35.565Z,8.02
2022-12-19T19:11:39.977Z,7.55
2022-12-19T19:14:43.017Z,7.70
2022-12-19T19:17:49.258Z,7.38
2022-12-19T19:21:00.718Z,6.63
2022-12-19T19:24:11.347Z,7.50
2022-12-19T19:27:15.932Z,7.47
2022-12-19T19:30:20.985Z,6.03
2022-12-19T19:33:30.452Z,6.65
2022-12-19T19:36:39.547Z,5.60
2022-12-19T19:39:43.162Z,6.07
2022-12-19T19:42:47.645Z,6.40
2022-12-19T19:45:52.073Z,5.78
2022-12-19T19:48:55.935Z,5.68
2022-12-19T19:52:02.985Z,5.60
2022-12-19T19:55:07.948Z,5.63
2022-12-19T19:58:12.455Z,5.45
2022-12-19T20:01:15.920Z,5.90
2022-12-19T20:04:19.099Z,5.63
2022-12-19T20:07:22.946Z,5.93
2022-12-19T20:10:25.961Z,4.80
2022-12-19T20:13:34.185Z,5.53
2022-12-19T20:16:37.277Z,5.25
2022-12-19T20:19:40.703Z,5.53
2022-12-19T20:22:43.763Z,4.80
2022-12-19T20:25:46.750Z,4.68
2022-12-19T20:28:52.302Z,4.35
2022-12-19T20:31:56.436Z,5.00
2022-12-19T20:38:02.472Z,3.33
2022-12-19T20:41:06.299Z,3.25
2022-12-19T20:44:10.936Z,3.55
2022-12-19T20:47:14.850Z,3.22
2022-12-19T20:50:18.009Z,3.00
2022-12-19T20:53:21.169Z,3.20
2022-12-19T20:56:25.873Z,3.78
2022-12-19T20:59:30.667Z,3.00
2022-12-19T21:02:53.036Z,2.90
2022-12-19T21:05:57.950Z,2.95
2022-12-19T21:09:01.002Z,3.60
2022-12-19T21:12:04.275Z,3.17
2022-12-19T21:15:09.871Z,4.20
2022-12-19T21:18:12.881Z,4.00
2022-12-19T21:21:19.835Z,4.50
2022-12-19T21:24:22.929Z,4.45
2022-12-19T21:27:26.063Z,4.88
2022-12-19T21:30:30.455Z,4.40
2022-12-19T21:33:34.515Z,4.57
2022-12-19T21:36:38.516Z,5.72
2022-12-19T21:39:41.574Z,4.93
2022-12-19T21:42:44.833Z,4.85
2022-12-19T21:45:49.199Z,5.73
2022-12-19T21:48:54.962Z,5.53
2022-12-19T21:51:58.024Z,6.13
2022-12-19T21:55:01.235Z,7.50
2022-12-19T21:58:04.287Z,8.27
2022-12-19T22:01:13.770Z,8.85
2022-12-19T22:04:21.316Z,9.43
2022-12-19T22:07:24.468Z,10.48
2022-12-19T22:10:27.503Z,9.20
2022-12-19T22:13:31.059Z,9.32
2022-12-19T22:16:37.127Z,9.88
2022-12-19T22:19:40.301Z,9.13
2022-12-19T22:22:44.641Z,8.00
2022-12-19T22:25:47.684Z,8.27
2022-12-19T22:28:53.384Z,7.10
2022-12-19T22:31:57.959Z,7.70
2022-12-19T22:35:01.017Z,7.30
2022-12-19T22:38:04.462Z,7.15
2022-12-19T22:41:07.894Z,7.03
2022-12-19T22:44:18.152Z,7.63
2022-12-19T22:47:22.567Z,7.60
2022-12-19T22:50:25.691Z,8.68
2022-12-19T22:53:28.735Z,8.52
2022-12-19T22:56:33.454Z,8.15
2022-12-19T22:59:36.531Z,9.18
2022-12-19T23:02:42.026Z,10.30
2022-12-19T23:05:51.585Z,10.77
2022-12-19T23:08:55.640Z,11.43
2022-12-19T23:11:58.789Z,11.65
2022-12-19T23:15:01.793Z,12.35
2022-12-19T23:18:06.218Z,13.05
2022-12-19T23:21:12.878Z,13.60
2022-12-19T23:24:16.263Z,13.98
2022-12-19T23:27:19.280Z,14.67
2022-12-19T23:30:22.565Z,15.65
2022-12-19T23:33:26.941Z,15.50
2022-12-19T23:39:53.442Z,13.77
2022-12-19T23:42:56.589Z,13.70
2022-12-19T23:46:00.042Z,14.57
2022-12-19T23:49:05.189Z,14.30
2022-12-19T23:52:08.216Z,16.15
2022-12-19T23:55:12.072Z,15.18
2022-12-19T23:58:20.756Z,15.50
